createdAt,value
2022-12-15T00:01:33.525Z,98903.48
2022-12-15T00:04:21.465Z,98911.58
2022-12-15T00:07:09.505Z,98918.08
2022-12-15T00:09:57.219Z,98923.27
2022-12-15T00:12:46.179Z,98921.27
2022-12-15T00:15:34.340Z,98925.60
2022-12-15T00:18:26.253Z,98924.36
2022-12-15T00:21:17.365Z,98924.96
2022-12-15T00:24:05.105Z,98923.46
2022-12-15T00:26:52.324Z,98921.70
2022-12-15T00:29:39.739Z,98921.35
2022-12-15T00:32:27.605Z,98921.80
2022-12-15T00:35:16.246Z,98923.99
2022-12-15T00:38:05.079Z,98928.48
2022-12-15T00:40:34.406Z,98932.43
2022-12-15T00:43:03.491Z,98926.23
2022-12-15T00:45:50.704Z,98930.70
2022-12-15T00:48:19.894Z,98933.73
2022-12-15T00:50:54.534Z,98936.00
2022-12-15T00:53:43.484Z,98942.35
2022-12-15T00:56:31.111Z,98944.70
2022-12-15T00:59:19.456Z,98944.67
2022-12-15T01:02:07.133Z,98948.19
2022-12-15T01:04:54.686Z,98953.60
2022-12-15T01:07:42.048Z,98954.83
2022-12-15T01:10:30.467Z,98953.52
2022-12-15T01:13:17.911Z,98961.34
2022-12-15T01:16:05.690Z,98959.61
2022-12-15T01:18:54.326Z,98961.64
2022-12-15T01:21:25.254Z,98968.45
2022-12-15T01:23:54.536Z,98969.33
2022-12-15T01:26:23.627Z,98965.79
2022-12-15T01:28:52.225Z,98966.42
2022-12-15T01:31:20.840Z,98974.64
2022-12-15T01:33:53.781Z,98971.05
2022-12-15T01:36:22.485Z,98979.15
2022-12-15T01:38:54.315Z,98982.95
2022-12-15T01:41:23.954Z,98985.19
2022-12-15T01:43:52.727Z,98982.67
2022-12-15T01:46:22.763Z,98987.04
2022-12-15T01:49:17.257Z,98990.89
2022-12-15T01:51:49.605Z,98991.54
2022-12-15T01:54:24.788Z,98990.79
2022-12-15T01:56:57.607Z,98993.23
2022-12-15T01:59:40.145Z,98998.75
2022-12-15T02:02:09.298Z,99002.88
2022-12-15T02:04:38.855Z,99003.64
2022-12-15T02:07:07.824Z,99004.58
2022-12-15T02:09:36.507Z,99013.73
2022-12-15T02:12:43.491Z,99016.58
2022-12-15T02:15:28.668Z,99020.07
2022-12-15T02:18:18.566Z,99022.86
2022-12-15T02:21:06.278Z,99027.40
2022-12-15T02:24:06.104Z,99028.81
2022-12-15T02:26:38.485Z,99031.70
2022-12-15T02:29:26.006Z,99028.67
2022-12-15T02:32:04.866Z,99026.57
2022-12-15T02:34:55.104Z,99030.09
2022-12-15T02:37:32.826Z,99035.66
2022-12-15T02:40:02.725Z,99045.05
2022-12-15T02:42:33.587Z,99050.64
2022-12-15T02:45:19.378Z,99054.91
2022-12-15T02:48:13.746Z,99059.34
2022-12-15T02:51:08.624Z,99068.57
2022-12-15T02:54:20.229Z,99073.46
2022-12-15T02:57:13.286Z,99077.02
2022-12-15T02:59:46.694Z,99079.50
2022-12-15T03:02:16.115Z,99082.86
2022-12-15T03:04:45.886Z,99085.80
2022-12-15T03:07:17.874Z,99092.77
2022-12-15T03:09:47.555Z,99095.51
2022-12-15T03:12:17.367Z,99101.06
2022-12-15T03:14:46.778Z,99099.13
2022-12-15T03:17:15.907Z,99105.09
2022-12-15T03:19:44.549Z,99108.27
2022-12-15T03:22:13.548Z,99108.88
2022-12-15T03:24:42.118Z,99106.02
2022-12-15T03:27:11.027Z,99106.13
2022-12-15T03:29:39.926Z,99105.71
2022-12-15T03:32:09.144Z,99100.14
2022-12-15T03:34:38.308Z,99099.65
2022-12-15T03:37:07.206Z,99095.95
2022-12-15T03:39:35.986Z,99102.95
2022-12-15T03:42:04.990Z,99105.74
2022-12-15T03:44:33.451Z,99109.00
2022-12-15T03:47:04.011Z,99112.73
2022-12-15T03:49:33.890Z,99114.27
2022-12-15T03:52:02.687Z,99110.88
2022-12-15T03:54:31.886Z,99116.89
2022-12-15T03:57:00.887Z,99123.31
2022-12-15T03:59:29.786Z,99131.02
2022-12-15T04:01:58.704Z,99133.73
2022-12-15T04:04:27.544Z,99139.21
2022-12-15T04:06:56.344Z,99141.48
2022-12-15T04:09:26.146Z,99139.23
2022-12-15T04:11:55.247Z,99134.50
2022-12-15T04:14:24.026Z,99137.48
2022-12-15T04:16:52.759Z,99140.15
2022-12-15T04:19:40.541Z,99142.60
2022-12-15T04:22:11.639Z,99151.33
2022-12-15T04:25:02.494Z,99161.76
2022-12-15T04:27:50.126Z,99162.65
2022-12-15T04:30:38.102Z,99166.96
2022-12-15T04:33:30.581Z,99167.20
2022-12-15T04:36:18.246Z,99167.58
2022-12-15T04:39:06.372Z,99176.02
2022-12-15T04:41:54.525Z,99177.02
2022-12-15T04:44:42.268Z,99178.96
2022-12-15T04:47:30.081Z,99177.83
2022-12-15T04:50:18.226Z,99182.17
2022-12-15T04:53:06.167Z,99192.98
2022-12-15T04:55:55.321Z,99194.80
2022-12-15T04:58:42.765Z,99195.52
2022-12-15T05:01:30.601Z,99196.31
2022-12-15T05:04:18.784Z,99197.53
2022-12-15T05:07:06.042Z,99206.20
2022-12-15T05:09:53.886Z,99210.59
2022-12-15T05:12:41.006Z,99210.05
2022-12-15T05:15:28.767Z,99221.67
2022-12-15T05:18:16.044Z,99225.69
2022-12-15T05:21:04.090Z,99227.80
2022-12-15T05:23:51.925Z,99223.98
2022-12-15T05:26:39.866Z,99216.77
2022-12-15T05:29:27.505Z,99216.93
2022-12-15T05:31:56.684Z,99218.84
2022-12-15T05:34:26.642Z,99229.61
2022-12-15T05:36:56.696Z,99230.39
2022-12-15T05:39:27.230Z,99238.98
2022-12-15T05:41:57.066Z,99242.82
2022-12-15T05:44:26.465Z,99244.23
2022-12-15T05:46:55.143Z,99247.85
2022-12-15T05:49:24.143Z,99251.45
2022-12-15T05:51:53.545Z,99258.82
2022-12-15T05:54:22.246Z,99266.33
2022-12-15T05:56:50.925Z,99270.56
2022-12-15T05:59:20.908Z,99274.87
2022-12-15T06:01:50.037Z,99271.77
2022-12-15T06:04:20.134Z,99274.48
2022-12-15T06:06:49.264Z,99279.23
2022-12-15T06:09:18.246Z,99279.64
2022-12-15T06:11:47.029Z,99285.50
2022-12-15T06:14:16.421Z,99294.68
2022-12-15T06:16:50.803Z,99297.70
2022-12-15T06:19:20.965Z,99305.56
2022-12-15T06:21:50.394Z,99319.23
2022-12-15T06:24:19.149Z,99332.38
2022-12-15T06:26:49.745Z,99337.08
2022-12-15T06:29:19.388Z,99343.00
2022-12-15T06:31:48.515Z,99348.52
2022-12-15T06:34:18.689Z,99348.66
2022-12-15T06:36:47.800Z,99353.56
2022-12-15T06:39:16.805Z,99354.02
2022-12-15T06:41:45.885Z,99353.69
2022-12-15T06:44:16.546Z,99352.62
2022-12-15T06:46:46.903Z,99358.32
2022-12-15T06:49:16.140Z,99362.20
2022-12-15T06:51:45.330Z,99368.16
2022-12-15T06:54:15.830Z,99376.71
2022-12-15T06:56:45.068Z,99380.54
2022-12-15T06:59:15.040Z,99386.65
2022-12-15T07:01:43.777Z,99387.89
2022-12-15T07:04:13.093Z,99377.48
2022-12-15T07:06:42.785Z,99373.54
2022-12-15T07:09:16.505Z,99375.59
2022-12-15T07:11:46.748Z,99380.27
2022-12-15T07:14:17.103Z,99387.80
2022-12-15T07:16:46.838Z,99394.73
2022-12-15T07:19:16.244Z,99395.72
2022-12-15T07:21:45.865Z,99394.87
2022-12-15T07:24:14.836Z,99399.78
2022-12-15T07:26:48.852Z,99402.54
2022-12-15T07:29:23.018Z,99412.44
2022-12-15T07:31:52.938Z,99415.68
2022-12-15T07:34:22.186Z,99419.92
2022-12-15T07:36:52.645Z,99431.15
2022-12-15T07:39:22.129Z,99438.35
2022-12-15T07:41:50.691Z,99447.11
2022-12-15T07:44:20.206Z,99446.05
2022-12-15T07:46:49.920Z,99447.22
2022-12-15T07:49:19.525Z,99441.95
2022-12-15T07:51:48.827Z,99440.52
2022-12-15T07:54:19.057Z,99446.04
2022-12-15T07:56:50.425Z,99449.50
2022-12-15T07:59:20.295Z,99458.66
2022-12-15T08:01:50.150Z,99464.84
2022-12-15T08:04:19.910Z,99467.11
2022-12-15T08:06:49.028Z,99471.23
2022-12-15T08:09:19.510Z,99472.91
2022-12-15T08:11:52.636Z,99479.40
2022-12-15T08:14:25.783Z,99479.98
2022-12-15T08:16:57.227Z,99480.09
2022-12-15T08:19:26.261Z,99477.05
2022-12-15T08:21:55.462Z,99476.75
2022-12-15T08:24:24.149Z,99474.92
2022-12-15T08:26:54.059Z,99479.83
2022-12-15T08:29:50.191Z,99485.42
2022-12-15T08:32:14.789Z,99486.14
2022-12-15T08:34:48.805Z,99486.29
2022-12-15T08:37:17.726Z,99497.01
2022-12-15T08:39:47.088Z,99500.20
2022-12-15T08:42:16.179Z,99500.85
2022-12-15T08:44:49.473Z,99499.45
2022-12-15T08:47:19.170Z,99500.74
2022-12-15T08:49:49.307Z,99498.18
2022-12-15T08:52:19.464Z,99501.51
2022-12-15T08:54:48.626Z,99503.92
2022-12-15T08:57:17.920Z,99506.42
2022-12-15T08:59:47.009Z,99505.77
2022-12-15T09:02:16.589Z,99510.23
2022-12-15T09:04:45.914Z,99515.05
2022-12-15T09:07:14.915Z,99519.17
2022-12-15T09:09:44.324Z,99520.63
2022-12-15T09:12:15.914Z,99521.39
2022-12-15T09:14:48.796Z,99523.52
2022-12-15T09:17:17.780Z,99522.74
2022-12-15T09:19:46.935Z,99524.07
2022-12-15T09:22:15.929Z,99527.39
2022-12-15T09:24:45.025Z,99534.69
2022-12-15T09:27:13.920Z,99540.81
2022-12-15T09:29:43.445Z,99544.50
2022-12-15T09:32:14.650Z,99540.39
2022-12-15T09:34:43.763Z,99543.43
2022-12-15T09:37:13.879Z,99543.61
2022-12-15T09:39:43.171Z,99542.50
2022-12-15T09:42:28.465Z,99538.15
2022-12-15T09:45:15.784Z,99539.80
2022-12-15T09:47:54.378Z,99542.53
2022-12-15T09:50:35.118Z,99551.23
2022-12-15T09:53:17.923Z,99550.38
2022-12-15T09:56:01.515Z,99545.39
2022-12-15T09:58:34.500Z,99538.52
2022-12-15T10:01:11.861Z,99541.66
2022-12-15T10:03:57.195Z,99543.08
2022-12-15T10:06:34.707Z,99544.25
2022-12-15T10:09:14.840Z,99545.67
2022-12-15T10:11:55.359Z,99539.40
2022-12-15T10:14:49.905Z,99543.92
2022-12-15T10:17:28.088Z,99543.86
2022-12-15T10:20:27.493Z,99551.23
2022-12-15T10:23:15.668Z,99552.61
2022-12-15T10:25:51.780Z,99553.49
2022-12-15T10:28:31.747Z,99557.72
2022-12-15T10:31:03.941Z,99567.03
2022-12-15T10:33:39.940Z,99566.55
2022-12-15T10:36:15.330Z,99569.02
2022-12-15T10:38:50.316Z,99565.39
2022-12-15T10:41:26.328Z,99558.74
2022-12-15T10:43:55.528Z,99559.97
2022-12-15T10:46:29.324Z,99557.17
2022-12-15T10:49:07.201Z,99564.17
2022-12-15T10:51:43.791Z,99559.77
2022-12-15T10:54:14.733Z,99563.27
2022-12-15T10:56:50.432Z,99554.98
2022-12-15T10:59:26.856Z,99565.01
2022-12-15T11:01:55.573Z,99570.97
2022-12-15T11:04:34.790Z,99570.30
2022-12-15T11:07:04.967Z,99575.52
2022-12-15T11:09:37.157Z,99577.14
2022-12-15T11:12:38.675Z,99584.83
2022-12-15T11:15:31.405Z,99586.38
2022-12-15T11:18:06.463Z,99587.66
2022-12-15T11:20:40.087Z,99587.87
2022-12-15T11:26:49.028Z,99596.84
2022-12-15T11:29:26.175Z,99600.97
2022-12-15T11:31:59.995Z,99598.55
2022-12-15T11:34:42.612Z,99593.83
2022-12-15T11:37:24.548Z,99589.70
2022-12-15T11:40:02.055Z,99592.14
2022-12-15T11:42:49.748Z,99599.77
2022-12-15T11:45:27.262Z,99606.73
2022-12-15T11:48:06.560Z,99608.61
2022-12-15T11:50:57.205Z,99614.75
2022-12-15T11:53:47.047Z,99619.59
2022-12-15T11:56:45.837Z,99615.48
2022-12-15T11:59:56.255Z,99618.40
2022-12-15T12:02:50.034Z,99621.73
2022-12-15T12:05:55.929Z,99619.92
2022-12-15T12:08:42.224Z,99623.95
2022-12-15T12:11:40.298Z,99620.00
2022-12-15T12:14:18.896Z,99618.15
2022-12-15T12:16:54.436Z,99618.52
2022-12-15T12:19:35.905Z,99611.05
2022-12-15T12:22:12.485Z,99608.05
2022-12-15T12:24:50.972Z,99607.91
2022-12-15T12:27:55.067Z,99616.98
2022-12-15T12:30:28.279Z,99607.40
2022-12-15T12:33:14.626Z,99604.54
2022-12-15T12:35:48.702Z,99602.42
2022-12-15T12:38:25.432Z,99597.77
2022-12-15T12:41:00.053Z,99602.75
2022-12-15T12:43:45.031Z,99607.73
2022-12-15T12:46:26.059Z,99607.40
2022-12-15T12:48:59.282Z,99602.95
2022-12-15T12:51:40.566Z,99592.65
2022-12-15T12:54:37.517Z,99591.77
2022-12-15T12:57:12.456Z,99595.10
2022-12-15T12:59:58.046Z,99591.19
2022-12-15T13:02:35.697Z,99586.55
2022-12-15T13:05:24.802Z,99589.61
2022-12-15T13:08:09.246Z,99598.30
2022-12-15T13:10:47.271Z,99603.14
2022-12-15T13:13:33.068Z,99600.23
2022-12-15T13:16:15.600Z,99600.35
2022-12-15T13:19:07.272Z,99603.14
2022-12-15T13:21:45.445Z,99603.27
2022-12-15T13:24:45.599Z,99604.80
2022-12-15T13:27:20.656Z,99605.91
2022-12-15T13:30:19.324Z,99601.84
2022-12-15T13:32:54.574Z,99607.56
2022-12-15T13:35:30.510Z,99611.45
2022-12-15T13:38:05.021Z,99614.61
2022-12-15T13:40:36.606Z,99613.42
2022-12-15T13:43:05.376Z,99619.71
2022-12-15T13:45:37.953Z,99624.02
2022-12-15T13:48:45.215Z,99621.58
2022-12-15T13:51:43.325Z,99622.79
2022-12-15T14:14:00.196Z,99656.45
2022-12-15T14:16:32.010Z,99662.59
2022-12-15T14:19:09.873Z,99670.60
2022-12-15T14:21:38.452Z,99672.78
2022-12-15T14:24:38.501Z,99678.45
2022-12-15T14:27:29.574Z,99686.66
2022-12-15T14:30:19.783Z,99694.60
2022-12-15T14:33:14.675Z,99694.45
2022-12-15T14:35:55.774Z,99684.73
2022-12-15T14:38:28.326Z,99686.52
2022-12-15T14:40:57.631Z,99689.77
2022-12-15T14:43:30.691Z,99695.01
2022-12-15T14:46:09.876Z,99696.59
2022-12-15T14:48:45.100Z,99699.71
2022-12-15T14:51:14.900Z,99704.23
2022-12-15T14:53:45.018Z,99708.05
2022-12-15T14:56:27.557Z,99712.23
2022-12-15T14:59:16.666Z,99710.63
2022-12-15T15:02:02.297Z,99714.00
2022-12-15T15:03:10.627Z,99594.15
2022-12-15T15:04:33.728Z,99717.30
2022-12-15T15:07:07.492Z,99716.84
2022-12-15T15:09:41.446Z,99720.63
2022-12-15T15:12:22.311Z,99727.86
2022-12-15T15:15:04.418Z,99724.98
2022-12-15T15:17:44.977Z,99730.02
2022-12-15T15:20:18.779Z,99730.67
2022-12-15T15:22:48.584Z,99733.09
2022-12-15T15:25:28.702Z,99731.00
2022-12-15T15:28:20.485Z,99729.66
2022-12-15T15:31:07.213Z,99723.55
2022-12-15T15:33:38.736Z,99722.73
2022-12-15T15:36:10.798Z,99717.27
2022-12-15T15:38:41.861Z,99711.67
2022-12-15T15:41:29.893Z,99710.33
2022-12-15T15:44:00.227Z,99705.28
2022-12-15T15:46:31.500Z,99703.90
2022-12-15T15:49:01.361Z,99705.19
2022-12-15T15:51:32.984Z,99703.92
2022-12-15T15:54:05.029Z,99699.98
2022-12-15T15:56:33.867Z,99696.33
2022-12-15T15:59:13.830Z,99696.69
2022-12-15T16:01:46.836Z,99693.93
2022-12-15T16:04:15.808Z,99695.40
2022-12-15T16:06:47.505Z,99687.63
2022-12-15T16:09:17.364Z,99689.30
2022-12-15T16:11:46.668Z,99690.86
2022-12-15T16:14:17.552Z,99688.02
2022-12-15T16:16:46.392Z,99685.23
2022-12-15T16:19:15.202Z,99687.75
2022-12-15T16:21:45.406Z,99699.68
2022-12-15T16:24:17.819Z,99703.65
2022-12-15T16:26:49.828Z,99708.57
2022-12-15T16:29:21.134Z,99715.31
2022-12-15T16:31:50.513Z,99720.55
2022-12-15T16:34:22.903Z,99728.08
2022-12-15T16:36:52.578Z,99733.97
2022-12-15T16:39:29.663Z,99742.34
2022-12-15T16:41:59.365Z,99747.89
2022-12-15T16:44:29.732Z,99751.36
2022-12-15T16:46:59.293Z,99754.58
2022-12-15T16:49:35.182Z,99756.16
2022-12-15T16:52:19.630Z,99750.39
2022-12-15T16:54:57.304Z,99748.36
2022-12-15T16:57:27.065Z,99750.23
2022-12-15T16:59:56.920Z,99755.82
2022-12-15T17:02:29.654Z,99756.05
2022-12-15T17:04:58.995Z,99756.58
2022-12-15T17:07:30.154Z,99754.00
2022-12-15T17:09:59.564Z,99747.56
2022-12-15T17:12:28.445Z,99743.04
2022-12-15T17:14:59.182Z,99739.23
2022-12-15T17:17:28.902Z,99736.87
2022-12-15T17:20:28.587Z,99738.51
2022-12-15T17:22:51.086Z,99741.06
2022-12-15T17:25:45.703Z,99739.48
2022-12-15T17:28:21.095Z,99739.95
2022-12-15T17:30:52.085Z,99744.25
2022-12-15T17:33:27.327Z,99745.32
2022-12-15T17:36:06.242Z,99745.91
2022-12-15T17:38:36.503Z,99751.23
2022-12-15T17:41:06.196Z,99760.11
2022-12-15T17:43:36.250Z,99756.35
2022-12-15T17:46:06.531Z,99753.64
2022-12-15T17:48:36.785Z,99750.08
2022-12-15T17:51:20.534Z,99750.23
2022-12-15T17:53:52.094Z,99751.72
2022-12-15T17:56:27.302Z,99744.27
2022-12-15T17:58:56.483Z,99749.67
2022-12-15T18:01:26.788Z,99752.52
2022-12-15T18:04:01.619Z,99753.94
2022-12-15T18:06:31.368Z,99749.27
2022-12-15T18:09:02.152Z,99748.02
2022-12-15T18:11:31.388Z,99747.80
2022-12-15T18:14:03.776Z,99746.77
2022-12-15T18:16:33.015Z,99739.57
2022-12-15T18:19:02.769Z,99740.57
2022-12-15T18:21:32.167Z,99740.57
2022-12-15T18:24:03.055Z,99741.55
2022-12-15T18:26:38.615Z,99741.75
2022-12-15T18:29:19.488Z,99743.85
2022-12-15T18:31:50.090Z,99746.46
2022-12-15T18:34:21.574Z,99748.05
2022-12-15T18:36:55.715Z,99752.20
2022-12-15T18:39:29.415Z,99749.91
2022-12-15T18:41:58.606Z,99747.95
2022-12-15T18:44:29.778Z,99749.98
2022-12-15T18:47:02.295Z,99754.67
2022-12-15T18:49:32.838Z,99759.11
2022-12-15T18:52:05.422Z,99760.14
2022-12-15T18:54:34.763Z,99759.89
2022-12-15T18:57:10.023Z,99758.30
2022-12-15T18:59:41.348Z,99762.16
2022-12-15T19:02:13.011Z,99767.60
2022-12-15T19:04:43.520Z,99768.32
2022-12-15T19:07:13.123Z,99767.69
2022-12-15T19:09:47.289Z,99769.73
2022-12-15T19:12:21.663Z,99763.89
2022-12-15T19:14:52.721Z,99754.60
2022-12-15T19:17:43.924Z,99753.70
2022-12-15T19:20:39.841Z,99757.09
2022-12-15T19:23:13.733Z,99756.42
2022-12-15T19:25:45.704Z,99751.30
2022-12-15T19:28:27.094Z,99748.44
2022-12-15T19:30:58.781Z,99744.25
2022-12-15T19:33:29.265Z,99741.77
2022-12-15T19:36:01.267Z,99743.80
2022-12-15T19:38:33.710Z,99741.57
2022-12-15T19:41:05.983Z,99739.58
2022-12-15T19:43:37.884Z,99746.29
2022-12-15T19:46:14.763Z,99750.41
2022-12-15T19:48:51.426Z,99755.95
2022-12-15T19:51:24.984Z,99754.74
2022-12-15T19:53:55.432Z,99753.47
2022-12-15T19:56:28.569Z,99751.67
2022-12-15T19:58:59.377Z,99749.86
2022-12-15T20:01:31.549Z,99742.10
2022-12-15T20:04:01.615Z,99738.37
2022-12-15T20:06:34.838Z,99737.80
2022-12-15T20:09:10.326Z,99737.27
2022-12-15T20:11:40.890Z,99735.48
2022-12-15T20:14:15.718Z,99732.63
2022-12-15T20:16:46.834Z,99730.06
2022-12-15T20:19:17.250Z,99720.00
2022-12-15T20:21:46.924Z,99710.16
2022-12-15T20:24:18.615Z,99709.05
2022-12-15T20:26:49.502Z,99703.42
2022-12-15T20:29:26.998Z,99699.80
2022-12-15T20:31:58.134Z,99694.07
2022-12-15T20:34:28.066Z,99698.59
2022-12-15T20:36:59.830Z,99694.63
2022-12-15T20:39:30.998Z,99693.66
2022-12-15T20:42:00.558Z,99693.53
2022-12-15T20:44:31.382Z,99696.04
2022-12-15T20:47:01.200Z,99695.52
2022-12-15T20:49:30.957Z,99703.94
2022-12-15T20:52:00.122Z,99705.89
2022-12-15T20:54:30.019Z,99702.89
2022-12-15T20:56:59.000Z,99711.69
2022-12-15T20:59:32.676Z,99708.98
2022-12-15T21:02:04.571Z,99707.71
2022-12-15T21:04:34.499Z,99708.02
2022-12-15T21:07:06.032Z,99702.54
2022-12-15T21:09:34.929Z,99696.36
2022-12-15T21:12:09.462Z,99699.36
2022-12-15T21:14:39.303Z,99700.03
2022-12-15T21:17:15.284Z,99698.58
2022-12-15T21:19:44.615Z,99698.15
2022-12-15T21:22:39.934Z,99704.86
2022-12-15T21:25:25.258Z,99701.80
2022-12-15T21:27:54.199Z,99699.42
2022-12-15T21:30:26.401Z,99706.84
2022-12-15T21:32:55.216Z,99709.13
2022-12-15T21:35:27.348Z,99711.27
2022-12-15T21:37:58.987Z,99710.69
2022-12-15T21:40:29.724Z,99704.95
2022-12-15T21:42:58.922Z,99706.42
2022-12-15T21:45:27.691Z,99707.56
2022-12-15T21:48:15.114Z,99708.56
2022-12-15T21:50:46.670Z,99711.64
2022-12-15T21:53:18.022Z,99708.02
2022-12-15T21:55:47.776Z,99707.68
2022-12-15T21:58:25.208Z,99705.67
2022-12-15T22:00:54.061Z,99703.42
2022-12-15T22:03:23.112Z,99700.49
2022-12-15T22:05:52.081Z,99692.04
2022-12-15T22:08:22.435Z,99682.89
2022-12-15T22:10:52.042Z,99684.60
2022-12-15T22:13:23.331Z,99680.99
2022-12-15T22:15:51.945Z,99673.73
2022-12-15T22:18:22.815Z,99669.20
2022-12-15T22:20:52.784Z,99667.73
2022-12-15T22:23:21.489Z,99668.75
2022-12-15T22:25:52.526Z,99666.91
2022-12-15T22:28:26.362Z,99663.52
2022-12-15T22:30:56.413Z,99665.25
2022-12-15T22:33:26.440Z,99659.39
2022-12-15T22:35:56.305Z,99658.42
2022-12-15T22:38:25.184Z,99662.53
2022-12-15T22:40:55.604Z,99658.71
2022-12-15T22:43:29.110Z,99655.86
2022-12-15T22:45:57.973Z,99657.23
2022-12-15T22:48:30.907Z,99655.13
2022-12-15T22:51:01.103Z,99653.36
2022-12-15T22:53:34.896Z,99653.07
2022-12-15T22:56:06.441Z,99653.45
2022-12-15T22:58:42.994Z,99652.55
2022-12-15T23:01:12.002Z,99649.02
2022-12-15T23:03:40.724Z,99647.33
2022-12-15T23:06:09.482Z,99641.16
2022-12-15T23:08:38.172Z,99641.14
2022-12-15T23:11:25.404Z,99647.20
2022-12-15T23:13:53.969Z,99646.08
2022-12-15T23:16:24.026Z,99647.30
2022-12-15T23:18:55.126Z,99651.42
2022-12-15T23:21:25.245Z,99653.20
2022-12-15T23:23:53.965Z,99652.92
2022-12-15T23:26:24.265Z,99647.25
2022-12-15T23:28:55.058Z,99643.70
2022-12-15T23:31:24.036Z,99647.31
2022-12-15T23:33:52.682Z,99645.20
2022-12-15T23:36:21.361Z,99650.86
2022-12-15T23:38:50.785Z,99656.60
2022-12-15T23:41:20.485Z,99657.77
2022-12-15T23:43:49.564Z,99650.85
2022-12-15T23:46:19.200Z,99646.15
2022-12-15T23:48:48.171Z,99635.11
2022-12-15T23:51:18.943Z,99636.48
2022-12-15T23:53:48.411Z,99642.86
2022-12-15T23:56:26.043Z,99652.64
2022-12-15T23:58:57.550Z,99650.30
